Privateer 4 — WDG3800 — position and weather

sailwx.info

Track history (hours):
 
Tides and Currents Weather Stations Pressure Air Temp Water Temp Dewpoint Dewpoint Depression Visibility Wind Speed Wind Dir Waves Ship Positions

Privateer 4

Owner: 7 Seas Whale Watch, Gloucester, MA. More information available from US FCC via Universal Licensing System and Coast Guard Vessel Documentation Center.

Last reported at 2017-Oct-23 04:31 UTC. Time now 2017-Oct-23 04:38 UTC.
Position N 42°37' W 070°40'.

Length 30 m.

Type: Ship. MMSI: 367529770.

Date/timePositionNaut miles runAvg speedWind from/ knotsBaromVisibWave heightAir tempDewpointWater temp
2017-Oct-23 04:31N 42°37' W 070°40'0 0.0
2017-Oct-23 04:00N 42°37' W 070°40'0 0.0
2017-Oct-23 03:30N 42°37' W 070°40'0 0.0
2017-Oct-23 03:00N 42°37' W 070°40'0 0.0
2017-Oct-23 02:30N 42°37' W 070°40'0 0.0
2017-Oct-23 02:00N 42°37' W 070°40'0 0.0
2017-Oct-23 01:30N 42°37' W 070°40'0 0.0
2017-Oct-23 01:00N 42°37' W 070°40'0 0.0
2017-Oct-23 00:30N 42°37' W 070°40'0 0.0
2017-Oct-23 00:00N 42°37' W 070°40'0 0.0
2017-Oct-22 23:30N 42°37' W 070°40'0 0.0
2017-Oct-22 23:00N 42°37' W 070°40'0 0.0
2017-Oct-22 22:30N 42°37' W 070°40'0 0.0
2017-Oct-22 22:01N 42°37' W 070°40'0 0.0
2017-Oct-22 21:31N 42°37' W 070°40'0 0.0
2017-Oct-22 21:00N 42°37' W 070°40'0 0.0
2017-Oct-22 20:30N 42°37' W 070°40'0 0.0
2017-Oct-22 20:00N 42°37' W 070°40'5 9.8
2017-Oct-22 19:30N 42°32' W 070°38'817.0
2017-Oct-22 19:00N 42°26' W 070°30'3 5.5
2017-Oct-22 18:31N 42°24' W 070°27'611.5
2017-Oct-22 18:00N 42°22' W 070°20'3 4.1
2017-Oct-22 17:24N 42°20' W 070°17'717.1
2017-Oct-22 17:00N 42°14' W 070°14'611.3
2017-Oct-22 16:30N 42°08' W 070°14'611.9
2017-Oct-22 16:00N 42°02' W 070°14'3 7.1
2017-Oct-22 15:30N 42°04' W 070°17'510.8
2017-Oct-22 15:00N 42°09' W 070°19'611.6
2017-Oct-22 14:30N 42°15' W 070°21'612.7
2017-Oct-22 14:00N 42°21' W 070°25'2 3.7
2017-Oct-22 13:30N 42°23' W 070°25'611.9
2017-Oct-22 13:00N 42°26' W 070°32'917.2
2017-Oct-22 12:30N 42°33' W 070°39'4 7.9
2017-Oct-22 12:00N 42°37' W 070°40'0 0.1
2017-Oct-22 11:30N 42°37' W 070°40'0 0.0
2017-Oct-22 11:00N 42°37' W 070°40'0 0.0
2017-Oct-22 10:30N 42°37' W 070°40'0 0.0
2017-Oct-22 10:00N 42°37' W 070°40'0 0.0
2017-Oct-22 09:30N 42°37' W 070°40'0 0.0
2017-Oct-22 09:00N 42°37' W 070°40'0 0.0
2017-Oct-22 08:30N 42°37' W 070°40'0 0.0
2017-Oct-22 08:00N 42°37' W 070°40'0 0.0
2017-Oct-22 07:30N 42°37' W 070°40'0 0.0
2017-Oct-22 07:00N 42°37' W 070°40'0 0.0
2017-Oct-22 06:30N 42°37' W 070°40'0 0.0
2017-Oct-22 06:00N 42°37' W 070°40'0 0.0
2017-Oct-22 05:30N 42°37' W 070°40'0 0.0
2017-Oct-22 05:00N 42°37' W 070°40'0 0.0
2017-Oct-22 04:30N 42°37' W 070°40'0 0.0
2017-Oct-22 04:00N 42°37' W 070°40'0 0.0
2017-Oct-22 03:30N 42°37' W 070°40'0 0.0
2017-Oct-22 03:00N 42°37' W 070°40'0 0.0
2017-Oct-22 02:30N 42°37' W 070°40'0 0.0
2017-Oct-22 02:00N 42°37' W 070°40'0 0.0
2017-Oct-22 01:30N 42°37' W 070°40'0 0.0
2017-Oct-22 01:00N 42°37' W 070°40'0 0.0
2017-Oct-22 00:30N 42°37' W 070°40'0 0.0
2017-Oct-22 00:00N 42°37' W 070°40'0 0.0
2017-Oct-21 23:30N 42°37' W 070°40'0 0.0
2017-Oct-21 23:00N 42°37' W 070°40'0 0.0
2017-Oct-21 22:30N 42°37' W 070°40'0 0.0
2017-Oct-21 22:00N 42°37' W 070°40'0 0.0
2017-Oct-21 21:30N 42°37' W 070°40'0 0.0
2017-Oct-21 21:00N 42°37' W 070°40'0 0.0
2017-Oct-21 20:30N 42°37' W 070°40'0 0.0
2017-Oct-21 20:00N 42°37' W 070°40'2 4.1
2017-Oct-21 19:30N 42°35' W 070°39'815.3
2017-Oct-21 19:00N 42°39' W 070°31'2 4.4
2017-Oct-21 18:30N 42°39' W 070°28'3 5.1
2017-Oct-21 18:00N 42°37' W 070°30'2 4.9
2017-Oct-21 17:30N 42°36' W 070°33'5 9.8
2017-Oct-21 17:01N 42°37' W 070°40'0 0.1
2017-Oct-21 16:30N 42°37' W 070°40'0 0.0
2017-Oct-21 16:00N 42°37' W 070°40'0 0.0
2017-Oct-21 15:31N 42°37' W 070°40'0 0.0
2017-Oct-21 15:00N 42°37' W 070°40'0 0.0
2017-Oct-21 14:30N 42°37' W 070°40'0 0.0
2017-Oct-21 13:30N 42°37' W 070°40'0 0.0
2017-Oct-21 13:00N 42°37' W 070°40'0 0.0
2017-Oct-21 12:31N 42°37' W 070°40'0 0.0
2017-Oct-21 12:01N 42°37' W 070°40'0 0.0
2017-Oct-21 11:30N 42°37' W 070°40'0 0.0
2017-Oct-21 11:01N 42°37' W 070°40'0 0.0
2017-Oct-21 10:30N 42°37' W 070°40'0 0.0
2017-Oct-21 10:01N 42°37' W 070°40'0 0.0
2017-Oct-21 09:31N 42°37' W 070°40'0 0.0
2017-Oct-21 09:00N 42°37' W 070°40'0 0.0
2017-Oct-21 08:30N 42°37' W 070°40'0 0.0
2017-Oct-21 08:00N 42°37' W 070°40'0 0.0
2017-Oct-21 07:31N 42°37' W 070°40'0 0.0
2017-Oct-21 07:00N 42°37' W 070°40'0 0.0
2017-Oct-21 06:30N 42°37' W 070°40'0 0.0
2017-Oct-21 06:00N 42°37' W 070°40'0 0.0
2017-Oct-21 05:30N 42°37' W 070°40'0 0.0
2017-Oct-21 05:00N 42°37' W 070°40'0 0.0
2017-Oct-21 04:30N 42°37' W 070°40'0 0.0
2017-Oct-21 04:01N 42°37' W 070°40'0 0.0
2017-Oct-21 03:31N 42°37' W 070°40'0 0.0
2017-Oct-21 03:00N 42°37' W 070°40'0 0.0
2017-Oct-21 02:30N 42°37' W 070°40'0 0.0
2017-Oct-21 02:00N 42°37' W 070°40'0 0.0
2017-Oct-21 01:30N 42°37' W 070°40'0 0.0
2017-Oct-21 01:00N 42°37' W 070°40'0 0.0
2017-Oct-21 00:31N 42°37' W 070°40'0 0.0
2017-Oct-21 00:00N 42°37' W 070°40'0 0.0
2017-Oct-20 23:31N 42°37' W 070°40'0 0.0
2017-Oct-20 23:00N 42°37' W 070°40'0 0.0
2017-Oct-20 22:30N 42°37' W 070°40'0 0.0
2017-Oct-20 22:01N 42°37' W 070°40'0 0.0
2017-Oct-20 21:30N 42°37' W 070°40'0 0.0
2017-Oct-20 21:01N 42°37' W 070°40'0 0.0
2017-Oct-20 20:31N 42°37' W 070°40'0 0.0
2017-Oct-20 20:01N 42°37' W 070°40'0 0.2
2017-Oct-20 19:30N 42°37' W 070°40'4 8.9
2017-Oct-20 19:00N 42°37' W 070°34'5 9.1
2017-Oct-20 18:31N 42°38' W 070°28'1 2.4
2017-Oct-20 18:00N 42°37' W 070°27'4 7.5
2017-Oct-20 17:30N 42°37' W 070°32'611.2
2017-Oct-20 17:00N 42°36' W 070°40'0 0.5
2017-Oct-20 16:30N 42°37' W 070°40'0 0.0
2017-Oct-20 16:00N 42°37' W 070°40'0 0.0
2017-Oct-20 15:30N 42°37' W 070°40'0 0.0
2017-Oct-20 15:00N 42°37' W 070°40'0 0.0
2017-Oct-20 14:30N 42°37' W 070°40'0 0.0
2017-Oct-20 13:30N 42°37' W 070°40'0 0.0
2017-Oct-20 13:00N 42°37' W 070°40'0 0.0
2017-Oct-20 12:30N 42°37' W 070°40'0 0.0
2017-Oct-20 12:00N 42°37' W 070°40'0 0.0
2017-Oct-20 11:30N 42°37' W 070°40'0 0.0
2017-Oct-20 11:00N 42°37' W 070°40'0 0.0
2017-Oct-20 10:31N 42°37' W 070°40'0 0.0
2017-Oct-20 10:00N 42°37' W 070°40'0 0.0
2017-Oct-20 09:30N 42°37' W 070°40'0 0.0
2017-Oct-20 09:01N 42°37' W 070°40'0 0.0
2017-Oct-20 08:30N 42°37' W 070°40'0 0.0
2017-Oct-20 08:00N 42°37' W 070°40'0 0.0
2017-Oct-20 07:31N 42°37' W 070°40'0 0.0
2017-Oct-20 07:00N 42°37' W 070°40'0 0.0
2017-Oct-20 06:30N 42°37' W 070°40'0 0.0
2017-Oct-20 06:00N 42°37' W 070°40'0 0.0
2017-Oct-20 05:30N 42°37' W 070°40'0 0.0
2017-Oct-20 05:00N 42°37' W 070°40'0 0.0
2017-Oct-20 04:30N 42°37' W 070°40'0 0.0
2017-Oct-20 04:01N 42°37' W 070°40'0 0.0
2017-Oct-20 03:31N 42°37' W 070°40'0 0.0
2017-Oct-20 03:00N 42°37' W 070°40'0 0.0
2017-Oct-20 02:30N 42°37' W 070°40'0 0.0
2017-Oct-20 02:00N 42°37' W 070°40'0 0.0
2017-Oct-20 01:30N 42°37' W 070°40'0 0.0
2017-Oct-20 01:00N 42°37' W 070°40'0 0.0
2017-Oct-20 00:31N 42°37' W 070°40'0 0.0
2017-Oct-20 00:00N 42°37' W 070°40'0 0.0
2017-Oct-19 23:31N 42°37' W 070°40'0 0.0
2017-Oct-19 23:01N 42°37' W 070°40'0 0.0
2017-Oct-19 22:31N 42°37' W 070°40'0 0.0
2017-Oct-19 22:00N 42°37' W 070°40'0 0.0
2017-Oct-19 21:30N 42°37' W 070°40'0 0.0
2017-Oct-19 21:00N 42°37' W 070°40'0 0.0
2017-Oct-19 20:30N 42°37' W 070°40'1 1.6
2017-Oct-19 20:00N 42°36' W 070°40'612.4
2017-Oct-19 19:30N 42°38' W 070°32'510.5
2017-Oct-19 19:00N 42°40' W 070°26'1 1.4
2017-Oct-19 18:30N 42°41' W 070°26'1 2.9
2017-Oct-19 18:01N 42°40' W 070°27'5 9.9
2017-Oct-19 17:30N 42°37' W 070°33'510.4
2017-Oct-19 17:00N 42°37' W 070°40'0 0.2
2017-Oct-19 16:30N 42°37' W 070°40'0 0.0
2017-Oct-19 16:00N 42°37' W 070°40'0 0.0
2017-Oct-19 15:30N 42°37' W 070°40'0 0.0
2017-Oct-19 15:00N 42°37' W 070°40'0 0.0
2017-Oct-19 14:30N 42°37' W 070°40'0 0.0
2017-Oct-19 14:00N 42°37' W 070°40'0 0.0
2017-Oct-19 13:30N 42°37' W 070°40'0 0.0
2017-Oct-19 13:00N 42°37' W 070°40'0 0.0
2017-Oct-19 12:30N 42°37' W 070°40'0 0.0
2017-Oct-19 12:00N 42°37' W 070°40'0 0.0
2017-Oct-19 11:30N 42°37' W 070°40'0 0.0
2017-Oct-19 11:00N 42°37' W 070°40'0 0.0
2017-Oct-19 10:30N 42°37' W 070°40'0 0.0
2017-Oct-19 10:00N 42°37' W 070°40'0 0.0
2017-Oct-19 09:30N 42°37' W 070°40'0 0.0
2017-Oct-19 09:00N 42°37' W 070°40'0 0.0
2017-Oct-19 08:30N 42°37' W 070°40'0 0.0
2017-Oct-19 08:00N 42°37' W 070°40'0 0.0
2017-Oct-19 07:30N 42°37' W 070°40'0 0.0
2017-Oct-19 07:00N 42°37' W 070°40'0 0.0
2017-Oct-19 06:30N 42°37' W 070°40'0 0.0
2017-Oct-19 06:00N 42°37' W 070°40'0 0.0
2017-Oct-19 05:30N 42°37' W 070°40'0 0.0
2017-Oct-19 05:00N 42°37' W 070°40'0 0.0
2017-Oct-19 04:30N 42°37' W 070°40'0 0.0
2017-Oct-19 04:00N 42°37' W 070°40'0 0.0
2017-Oct-19 03:30N 42°37' W 070°40'0 0.0
2017-Oct-19 03:00N 42°37' W 070°40'0 0.0
2017-Oct-19 02:30N 42°37' W 070°40'0 0.0
2017-Oct-19 02:00N 42°37' W 070°40'0 0.0
2017-Oct-19 01:30N 42°37' W 070°40'0 0.0
2017-Oct-19 01:00N 42°37' W 070°40'0 0.0
2017-Oct-19 00:30N 42°37' W 070°40'0 0.0
2017-Oct-19 00:00N 42°37' W 070°40'0 0.0
2017-Oct-18 23:30N 42°37' W 070°40'0 0.0
2017-Oct-18 23:00N 42°37' W 070°40'0 0.0
2017-Oct-18 22:30N 42°37' W 070°40'0 0.0
2017-Oct-18 22:00N 42°37' W 070°40'0 0.0
2017-Oct-18 21:30N 42°37' W 070°40'0 0.0
2017-Oct-18 21:00N 42°37' W 070°40'0 0.0
2017-Oct-18 20:30N 42°37' W 070°40'0 0.0
2017-Oct-18 20:00N 42°37' W 070°40'2 4.4
2017-Oct-18 19:30N 42°35' W 070°39'815.9
2017-Oct-18 19:00N 42°38' W 070°29'1 2.7
2017-Oct-18 18:31N 42°39' W 070°29'1 2.3
2017-Oct-18 18:00N 42°39' W 070°30'3 5.9
2017-Oct-18 17:30N 42°38' W 070°33'5 9.7
2017-Oct-18 17:01N 42°37' W 070°40'0 0.1
2017-Oct-18 16:30N 42°37' W 070°40'0 0.0
2017-Oct-18 16:00N 42°37' W 070°40'0 0.0
2017-Oct-18 15:31N 42°37' W 070°40'0 0.0
2017-Oct-18 15:00N 42°37' W 070°40'0 0.0
2017-Oct-18 14:00N 42°37' W 070°40'0 0.0
2017-Oct-18 13:30N 42°37' W 070°40'0 0.0
2017-Oct-18 13:01N 42°37' W 070°40'0 0.0
2017-Oct-18 12:30N 42°37' W 070°40'0 0.0
2017-Oct-18 12:00N 42°37' W 070°40'0 0.0
2017-Oct-18 11:30N 42°37' W 070°40'0 0.0
2017-Oct-18 11:00N 42°37' W 070°40'0 0.0
2017-Oct-18 10:30N 42°37' W 070°40'0 0.0
2017-Oct-18 10:00N 42°37' W 070°40'0 0.0
2017-Oct-18 09:30N 42°37' W 070°40'0 0.0
2017-Oct-18 09:00N 42°37' W 070°40'0 0.0
2017-Oct-18 08:30N 42°37' W 070°40'0 0.0
2017-Oct-18 08:00N 42°37' W 070°40'0 0.0
2017-Oct-18 07:30N 42°37' W 070°40'0 0.0
2017-Oct-18 07:00N 42°37' W 070°40'0 0.0
2017-Oct-18 06:30N 42°37' W 070°40'0 0.0
2017-Oct-18 06:00N 42°37' W 070°40'0 0.0
2017-Oct-18 05:30N 42°37' W 070°40'0 0.0
2017-Oct-18 05:01N 42°37' W 070°40'0 0.0
2017-Oct-18 04:30N 42°37' W 070°40'0 0.0
2017-Oct-18 04:01N 42°37' W 070°40'0 0.0
2017-Oct-18 03:30N 42°37' W 070°40'0 0.0
2017-Oct-18 03:00N 42°37' W 070°40'0 0.0
2017-Oct-18 02:30N 42°37' W 070°40'0 0.0
2017-Oct-18 02:00N 42°37' W 070°40'0 0.0
2017-Oct-18 01:31N 42°37' W 070°40'0 0.0
2017-Oct-18 01:00N 42°37' W 070°40'0 0.0
2017-Oct-18 00:30N 42°37' W 070°40'0 0.0
2017-Oct-18 00:00N 42°37' W 070°40'0 0.0
2017-Oct-17 23:30N 42°37' W 070°40'0 0.0
2017-Oct-17 23:00N 42°37' W 070°40'0 0.0
2017-Oct-17 22:30N 42°37' W 070°40'0 0.0
2017-Oct-17 22:00N 42°37' W 070°40'0 0.0
2017-Oct-17 21:30N 42°37' W 070°40'0 0.0
2017-Oct-17 21:01N 42°37' W 070°40'0 0.0
2017-Oct-17 20:30N 42°37' W 070°40'0 0.0
2017-Oct-17 20:00N 42°37' W 070°40'0 0.0
2017-Oct-17 19:30N 42°37' W 070°40'0 0.0
2017-Oct-17 19:00N 42°37' W 070°40'0 0.0
2017-Oct-17 18:30N 42°37' W 070°40'0 0.0
2017-Oct-17 18:00N 42°37' W 070°40'0 0.0
2017-Oct-17 17:30N 42°37' W 070°40'0 0.0
2017-Oct-17 17:00N 42°37' W 070°40'0 0.0
2017-Oct-17 16:30N 42°37' W 070°40'0 0.0
2017-Oct-17 16:00N 42°37' W 070°40'0 0.0
2017-Oct-17 15:30N 42°37' W 070°40'0 0.0
2017-Oct-17 15:00N 42°37' W 070°40'0 0.0
2017-Oct-17 14:31N 42°37' W 070°40'0 0.0
2017-Oct-17 14:00N 42°37' W 070°40'0 0.0
2017-Oct-17 13:30N 42°37' W 070°40'0 0.0
2017-Oct-17 13:00N 42°37' W 070°40'0 0.0
2017-Oct-17 12:30N 42°37' W 070°40'0 0.0
2017-Oct-17 12:00N 42°37' W 070°40'0 0.0
2017-Oct-17 11:30N 42°37' W 070°40'0 0.0
2017-Oct-17 11:00N 42°37' W 070°40'0 0.0
2017-Oct-17 10:30N 42°37' W 070°40'0 0.0
2017-Oct-17 10:00N 42°37' W 070°40'0 0.0
2017-Oct-17 09:30N 42°37' W 070°40'0 0.0
2017-Oct-17 09:01N 42°37' W 070°40'0 0.0
2017-Oct-17 08:30N 42°37' W 070°40'0 0.0
2017-Oct-17 08:00N 42°37' W 070°40'0 0.0
2017-Oct-17 07:30N 42°37' W 070°40'0 0.0
2017-Oct-17 07:00N 42°37' W 070°40'0 0.0
2017-Oct-17 06:30N 42°37' W 070°40'0 0.0
2017-Oct-17 06:00N 42°37' W 070°40'0 0.0
2017-Oct-17 05:30N 42°37' W 070°40'0 0.0
2017-Oct-17 05:00N 42°37' W 070°40'0 0.0
2017-Oct-17 04:30N 42°37' W 070°40'0 0.0
2017-Oct-17 04:00N 42°37' W 070°40'0 0.0
2017-Oct-17 03:30N 42°37' W 070°40'0 0.0
2017-Oct-17 03:00N 42°37' W 070°40'0 0.0
2017-Oct-17 02:30N 42°37' W 070°40'0 0.0
2017-Oct-17 02:01N 42°37' W 070°40'0 0.0
2017-Oct-17 01:31N 42°37' W 070°40'0 0.0
2017-Oct-17 01:00N 42°37' W 070°40'0 0.0
2017-Oct-17 00:30N 42°37' W 070°40'0 0.0
2017-Oct-17 00:00N 42°37' W 070°40'0 0.0
2017-Oct-16 23:30N 42°37' W 070°40'0 0.0
2017-Oct-16 23:00N 42°37' W 070°40'0 0.0
2017-Oct-16 22:30N 42°37' W 070°40'0 0.0
2017-Oct-16 22:00N 42°37' W 070°40'0 0.0
2017-Oct-16 21:30N 42°37' W 070°40'0 0.0
2017-Oct-16 21:00N 42°37' W 070°40'0 0.0
2017-Oct-16 20:30N 42°37' W 070°40'0 0.0
2017-Oct-16 20:00N 42°37' W 070°40'0 0.0
2017-Oct-16 19:30N 42°37' W 070°40'0 0.0
2017-Oct-16 19:00N 42°37' W 070°40'0 0.0
2017-Oct-16 18:30N 42°37' W 070°40'0 0.0
2017-Oct-16 18:00N 42°37' W 070°40'0 0.0
2017-Oct-16 17:30N 42°37' W 070°40'0 0.0
2017-Oct-16 17:00N 42°37' W 070°40'0 0.0
2017-Oct-16 16:31N 42°37' W 070°40'0 0.0
2017-Oct-16 16:00N 42°37' W 070°40'0 0.0
2017-Oct-16 15:30N 42°37' W 070°40'0 0.0
2017-Oct-16 15:01N 42°37' W 070°40'0 0.0
2017-Oct-16 14:00N 42°37' W 070°40'0 0.0
2017-Oct-16 13:30N 42°37' W 070°40'0 0.0
2017-Oct-16 13:01N 42°37' W 070°40'0 0.0
2017-Oct-16 12:30N 42°37' W 070°40'0 0.0
2017-Oct-16 12:00N 42°37' W 070°40'0 0.0
2017-Oct-16 11:31N 42°37' W 070°40'0 0.0
2017-Oct-16 11:00N 42°37' W 070°40'0 0.0
2017-Oct-16 10:30N 42°37' W 070°40'0 0.0
2017-Oct-16 10:01N 42°37' W 070°40'0 0.0
2017-Oct-16 09:30N 42°37' W 070°40'0 0.0
2017-Oct-16 09:00N 42°37' W 070°40'0 0.0
2017-Oct-16 08:30N 42°37' W 070°40'0 0.0
2017-Oct-16 08:01N 42°37' W 070°40'0 0.0
2017-Oct-16 07:30N 42°37' W 070°40'0 0.0
2017-Oct-16 07:00N 42°37' W 070°40'0 0.0
2017-Oct-16 06:30N 42°37' W 070°40'0 0.0
2017-Oct-16 06:01N 42°37' W 070°40'0 0.0
2017-Oct-16 05:31N 42°37' W 070°40'0 0.0
2017-Oct-16 05:00N 42°37' W 070°40'0 0.0
2017-Oct-16 04:31N 42°37' W 070°40'0 0.0
2017-Oct-16 04:01N 42°37' W 070°40'0 0.0
2017-Oct-16 03:31N 42°37' W 070°40'0 0.0
2017-Oct-16 03:00N 42°37' W 070°40'0 0.0
2017-Oct-16 02:31N 42°37' W 070°40'0 0.0
2017-Oct-16 02:01N 42°37' W 070°40'0 0.0
2017-Oct-16 01:31N 42°37' W 070°40'0 0.0
2017-Oct-16 01:01N 42°37' W 070°40'0 0.0
2017-Oct-16 00:31N 42°37' W 070°40'0 0.0
2017-Oct-16 00:00N 42°37' W 070°40'0 0.0
2017-Oct-15 23:30N 42°37' W 070°40'0 0.0
2017-Oct-15 23:01N 42°37' W 070°40'0 0.0
2017-Oct-15 22:30N 42°37' W 070°40'0 0.0
2017-Oct-15 22:00N 42°37' W 070°40'0 0.0
2017-Oct-15 21:30N 42°37' W 070°40'0 0.0
2017-Oct-15 21:01N 42°37' W 070°40'0 0.0
2017-Oct-15 20:30N 42°37' W 070°40'0 1.0
2017-Oct-15 20:00N 42°36' W 070°40'611.1
2017-Oct-15 19:30N 42°38' W 070°33'4 8.0
2017-Oct-15 19:00N 42°41' W 070°30'1 2.2
2017-Oct-15 18:31N 42°41' W 070°29'1 1.9
2017-Oct-15 18:00N 42°40' W 070°28'510.1
2017-Oct-15 17:30N 42°37' W 070°33'5 9.8
2017-Oct-15 17:00N 42°37' W 070°40'0 0.1
2017-Oct-15 16:30N 42°37' W 070°40'0 0.0
2017-Oct-15 16:00N 42°37' W 070°40'0 0.0
2017-Oct-15 15:30N 42°37' W 070°40'0 0.0
2017-Oct-15 15:00N 42°37' W 070°40'0 0.0
2017-Oct-15 14:00N 42°37' W 070°40'0 0.0
2017-Oct-15 13:30N 42°37' W 070°40'0 0.0
2017-Oct-15 13:00N 42°37' W 070°40'0 0.0
2017-Oct-15 12:30N 42°37' W 070°40'0 0.0
2017-Oct-15 12:00N 42°37' W 070°40'0 0.0
2017-Oct-15 11:30N 42°37' W 070°40'0 0.0
2017-Oct-15 11:00N 42°37' W 070°40'0 0.0
2017-Oct-15 10:30N 42°37' W 070°40'0 0.0
2017-Oct-15 10:00N 42°37' W 070°40'0 0.0
2017-Oct-15 09:30N 42°37' W 070°40'0 0.0
2017-Oct-15 09:00N 42°37' W 070°40'0 0.0
2017-Oct-15 08:30N 42°37' W 070°40'0 0.0
2017-Oct-15 08:00N 42°37' W 070°40'0 0.0
2017-Oct-15 07:30N 42°37' W 070°40'0 0.0
2017-Oct-15 07:00N 42°37' W 070°40'0 0.0
2017-Oct-15 06:30N 42°37' W 070°40'0 0.0
2017-Oct-15 06:00N 42°37' W 070°40'0 0.0
2017-Oct-15 05:30N 42°37' W 070°40'0 0.0
2017-Oct-15 05:00N 42°37' W 070°40'0 0.0
2017-Oct-15 04:30N 42°37' W 070°40'0 0.0
2017-Oct-15 04:00N 42°37' W 070°40'0 0.0
2017-Oct-15 03:30N 42°37' W 070°40'0 0.0
2017-Oct-15 03:00N 42°37' W 070°40'0 0.0
2017-Oct-15 02:30N 42°37' W 070°40'0 0.0
2017-Oct-15 02:00N 42°37' W 070°40'0 0.0
2017-Oct-15 01:30N 42°37' W 070°40'0 0.0
2017-Oct-15 01:00N 42°37' W 070°40'0 0.0
2017-Oct-15 00:30N 42°37' W 070°40'0 0.0
2017-Oct-15 00:00N 42°37' W 070°40'0 0.0
2017-Oct-14 23:30N 42°37' W 070°40'0 0.0
2017-Oct-14 23:00N 42°37' W 070°40'0 0.0
2017-Oct-14 22:30N 42°37' W 070°40'0 0.0
2017-Oct-14 22:00N 42°37' W 070°40'0 0.0
2017-Oct-14 21:30N 42°37' W 070°40'0 0.0
2017-Oct-14 21:00N 42°37' W 070°40'0 0.0
2017-Oct-14 20:31N 42°37' W 070°40'0 0.0
2017-Oct-14 20:00N 42°37' W 070°40'2 4.0
2017-Oct-14 19:31N 42°36' W 070°38'816.4
2017-Oct-14 19:00N 42°40' W 070°28'1 1.3
2017-Oct-14 18:30N 42°40' W 070°27'1 2.2
2017-Oct-14 18:00N 42°40' W 070°29'510.5
2017-Oct-14 17:30N 42°36' W 070°34'5 9.2
2017-Oct-14 17:00N 42°37' W 070°40'0 0.0
2017-Oct-14 16:31N 42°37' W 070°40'0 0.0
2017-Oct-14 16:01N 42°37' W 070°40'0 0.0
2017-Oct-14 15:30N 42°37' W 070°40'0 0.0
2017-Oct-14 15:00N 42°37' W 070°40'0 0.0
2017-Oct-14 14:30N 42°37' W 070°40'0 0.0
2017-Oct-14 14:01N 42°37' W 070°40'0 0.0
2017-Oct-14 13:30N 42°37' W 070°40'0 0.0
2017-Oct-14 13:00N 42°37' W 070°40'0 0.0
2017-Oct-14 12:30N 42°37' W 070°40'0 0.0
2017-Oct-14 12:00N 42°37' W 070°40'0 0.0
2017-Oct-14 11:31N 42°37' W 070°40'0 0.0
2017-Oct-14 11:01N 42°37' W 070°40'0 0.0
2017-Oct-14 10:30N 42°37' W 070°40'0 0.0
2017-Oct-14 10:01N 42°37' W 070°40'0 0.0
2017-Oct-14 09:30N 42°37' W 070°40'0 0.0
2017-Oct-14 09:00N 42°37' W 070°40'0 0.0
2017-Oct-14 08:30N 42°37' W 070°40'0 0.0
2017-Oct-14 08:00N 42°37' W 070°40'0 0.0
2017-Oct-14 07:30N 42°37' W 070°40'0 0.0
2017-Oct-14 07:00N 42°37' W 070°40'0 0.0
2017-Oct-14 06:30N 42°37' W 070°40'0 0.0
2017-Oct-14 06:00N 42°37' W 070°40'0 0.0
2017-Oct-14 05:31N 42°37' W 070°40'0 0.0
2017-Oct-14 05:01N 42°37' W 070°40'0 0.0
2017-Oct-14 04:30N 42°37' W 070°40'0 0.0
2017-Oct-14 04:00N 42°37' W 070°40'0 0.0
2017-Oct-14 03:30N 42°37' W 070°40'0 0.0
2017-Oct-14 03:00N 42°37' W 070°40'0 0.0
2017-Oct-14 02:30N 42°37' W 070°40'0 0.0
2017-Oct-14 02:01N 42°37' W 070°40'0 0.0
2017-Oct-14 01:26N 42°37' W 070°40'0 0.0
2017-Oct-14 00:52N 42°37' W 070°40'0 0.0
2017-Oct-13 23:46N 42°37' W 070°40'0 0.0
2017-Oct-13 23:20N 42°37' W 070°40'0 0.0
2017-Oct-13 23:00N 42°37' W 070°40'0 0.0
2017-Oct-13 22:31N 42°37' W 070°40'0 0.0
2017-Oct-13 22:00N 42°37' W 070°40'0 0.0
2017-Oct-13 21:30N 42°37' W 070°40'0 0.0
2017-Oct-13 21:00N 42°37' W 070°40'0 0.0
2017-Oct-13 20:31N 42°37' W 070°40'0 0.0
2017-Oct-13 20:00N 42°37' W 070°40'2 3.7
2017-Oct-13 19:31N 42°35' W 070°39'917.3
2017-Oct-13 19:00N 42°39' W 070°29'2 3.8
2017-Oct-13 18:30N 42°40' W 070°26'1 1.1
2017-Oct-13 18:00N 42°40' W 070°27'713.4
2017-Oct-13 17:30N 42°37' W 070°35'4 7.3
2017-Oct-13 17:00N 42°37' W 070°40'0 0.0
2017-Oct-13 16:30N 42°37' W 070°40'0 0.0
2017-Oct-13 16:00N 42°37' W 070°40'0 0.0
2017-Oct-13 15:30N 42°37' W 070°40'0 0.0
2017-Oct-13 15:00N 42°37' W 070°40'0 0.0
2017-Oct-13 14:30N 42°37' W 070°40'0 0.0
2017-Oct-13 14:00N 42°37' W 070°40'0 0.0
2017-Oct-13 13:30N 42°37' W 070°40'0 0.0
2017-Oct-13 13:00N 42°37' W 070°40'0 0.0
2017-Oct-13 12:30N 42°37' W 070°40'0 0.0
2017-Oct-13 12:00N 42°37' W 070°40'0 0.0
2017-Oct-13 11:30N 42°37' W 070°40'0 0.0
2017-Oct-13 11:00N 42°37' W 070°40'0 0.0
2017-Oct-13 10:30N 42°37' W 070°40'0 0.0
2017-Oct-13 10:00N 42°37' W 070°40'0 0.0
2017-Oct-13 09:30N 42°37' W 070°40'0 0.0
2017-Oct-13 09:00N 42°37' W 070°40'0 0.0
2017-Oct-13 08:30N 42°37' W 070°40'0 0.0
2017-Oct-13 08:00N 42°37' W 070°40'0 0.0
2017-Oct-13 07:30N 42°37' W 070°40'0 0.0
2017-Oct-13 07:00N 42°37' W 070°40'0 0.0
2017-Oct-13 06:30N 42°37' W 070°40'0 0.0
2017-Oct-13 06:00N 42°37' W 070°40'0 0.0
2017-Oct-13 05:30N 42°37' W 070°40'0 0.0
2017-Oct-13 05:00N 42°37' W 070°40'  
Track history (hours):
 
Tides and Currents Weather Stations Pressure Air Temp Water Temp Dewpoint Dewpoint Depression Visibility Wind Speed Wind Dir Waves Ship Positions

Privateer 4

Owner: 7 Seas Whale Watch, Gloucester, MA. More information available from US FCC via Universal Licensing System and Coast Guard Vessel Documentation Center.

Last reported at 2017-Oct-23 04:31 UTC. Time now 2017-Oct-23 04:38 UTC.
Position N 42°37' W 070°40'.

Length 30 m.

Type: Ship. MMSI: 367529770.

Date/timePositionNaut miles runAvg speedWind from/ knotsBaromVisibWave heightAir tempDewpointWater temp
2017-Oct-23 04:31N 42°37' W 070°40'0 0.0
2017-Oct-23 04:00N 42°37' W 070°40'0 0.0
2017-Oct-23 03:30N 42°37' W 070°40'0 0.0
2017-Oct-23 03:00N 42°37' W 070°40'0 0.0
2017-Oct-23 02:30N 42°37' W 070°40'0 0.0
2017-Oct-23 02:00N 42°37' W 070°40'0 0.0
2017-Oct-23 01:30N 42°37' W 070°40'0 0.0
2017-Oct-23 01:00N 42°37' W 070°40'0 0.0
2017-Oct-23 00:30N 42°37' W 070°40'0 0.0
2017-Oct-23 00:00N 42°37' W 070°40'0 0.0
2017-Oct-22 23:30N 42°37' W 070°40'0 0.0
2017-Oct-22 23:00N 42°37' W 070°40'0 0.0
2017-Oct-22 22:30N 42°37' W 070°40'0 0.0
2017-Oct-22 22:01N 42°37' W 070°40'0 0.0
2017-Oct-22 21:31N 42°37' W 070°40'0 0.0
2017-Oct-22 21:00N 42°37' W 070°40'0 0.0
2017-Oct-22 20:30N 42°37' W 070°40'0 0.0
2017-Oct-22 20:00N 42°37' W 070°40'5 9.8
2017-Oct-22 19:30N 42°32' W 070°38'817.0
2017-Oct-22 19:00N 42°26' W 070°30'3 5.5
2017-Oct-22 18:31N 42°24' W 070°27'611.5
2017-Oct-22 18:00N 42°22' W 070°20'3 4.1
2017-Oct-22 17:24N 42°20' W 070°17'717.1
2017-Oct-22 17:00N 42°14' W 070°14'611.3
2017-Oct-22 16:30N 42°08' W 070°14'611.9
2017-Oct-22 16:00N 42°02' W 070°14'3 7.1
2017-Oct-22 15:30N 42°04' W 070°17'510.8
2017-Oct-22 15:00N 42°09' W 070°19'611.6
2017-Oct-22 14:30N 42°15' W 070°21'612.7
2017-Oct-22 14:00N 42°21' W 070°25'2 3.7
2017-Oct-22 13:30N 42°23' W 070°25'611.9
2017-Oct-22 13:00N 42°26' W 070°32'917.2
2017-Oct-22 12:30N 42°33' W 070°39'4 7.9
2017-Oct-22 12:00N 42°37' W 070°40'0 0.1
2017-Oct-22 11:30N 42°37' W 070°40'0 0.0
2017-Oct-22 11:00N 42°37' W 070°40'0 0.0
2017-Oct-22 10:30N 42°37' W 070°40'0 0.0
2017-Oct-22 10:00N 42°37' W 070°40'0 0.0
2017-Oct-22 09:30N 42°37' W 070°40'0 0.0
2017-Oct-22 09:00N 42°37' W 070°40'0 0.0
2017-Oct-22 08:30N 42°37' W 070°40'0 0.0
2017-Oct-22 08:00N 42°37' W 070°40'0 0.0
2017-Oct-22 07:30N 42°37' W 070°40'0 0.0
2017-Oct-22 07:00N 42°37' W 070°40'0 0.0
2017-Oct-22 06:30N 42°37' W 070°40'0 0.0
2017-Oct-22 06:00N 42°37' W 070°40'0 0.0
2017-Oct-22 05:30N 42°37' W 070°40'0 0.0
2017-Oct-22 05:00N 42°37' W 070°40'0 0.0
2017-Oct-22 04:30N 42°37' W 070°40'0 0.0
2017-Oct-22 04:00N 42°37' W 070°40'0 0.0
2017-Oct-22 03:30N 42°37' W 070°40'0 0.0
2017-Oct-22 03:00N 42°37' W 070°40'0 0.0
2017-Oct-22 02:30N 42°37' W 070°40'0 0.0
2017-Oct-22 02:00N 42°37' W 070°40'0 0.0
2017-Oct-22 01:30N 42°37' W 070°40'0 0.0
2017-Oct-22 01:00N 42°37' W 070°40'0 0.0
2017-Oct-22 00:30N 42°37' W 070°40'0 0.0
2017-Oct-22 00:00N 42°37' W 070°40'0 0.0
2017-Oct-21 23:30N 42°37' W 070°40'0 0.0
2017-Oct-21 23:00N 42°37' W 070°40'0 0.0
2017-Oct-21 22:30N 42°37' W 070°40'0 0.0
2017-Oct-21 22:00N 42°37' W 070°40'0 0.0
2017-Oct-21 21:30N 42°37' W 070°40'0 0.0
2017-Oct-21 21:00N 42°37' W 070°40'0 0.0
2017-Oct-21 20:30N 42°37' W 070°40'0 0.0
2017-Oct-21 20:00N 42°37' W 070°40'2 4.1
2017-Oct-21 19:30N 42°35' W 070°39'815.3
2017-Oct-21 19:00N 42°39' W 070°31'2 4.4
2017-Oct-21 18:30N 42°39' W 070°28'3 5.1
2017-Oct-21 18:00N 42°37' W 070°30'2 4.9
2017-Oct-21 17:30N 42°36' W 070°33'5 9.8
2017-Oct-21 17:01N 42°37' W 070°40'0 0.1
2017-Oct-21 16:30N 42°37' W 070°40'0 0.0
2017-Oct-21 16:00N 42°37' W 070°40'0 0.0
2017-Oct-21 15:31N 42°37' W 070°40'0 0.0
2017-Oct-21 15:00N 42°37' W 070°40'0 0.0
2017-Oct-21 14:30N 42°37' W 070°40'0 0.0
2017-Oct-21 13:30N 42°37' W 070°40'0 0.0
2017-Oct-21 13:00N 42°37' W 070°40'0 0.0
2017-Oct-21 12:31N 42°37' W 070°40'0 0.0
2017-Oct-21 12:01N 42°37' W 070°40'0 0.0
2017-Oct-21 11:30N 42°37' W 070°40'0 0.0
2017-Oct-21 11:01N 42°37' W 070°40'0 0.0
2017-Oct-21 10:30N 42°37' W 070°40'0 0.0
2017-Oct-21 10:01N 42°37' W 070°40'0 0.0
2017-Oct-21 09:31N 42°37' W 070°40'0 0.0
2017-Oct-21 09:00N 42°37' W 070°40'0 0.0
2017-Oct-21 08:30N 42°37' W 070°40'0 0.0
2017-Oct-21 08:00N 42°37' W 070°40'0 0.0
2017-Oct-21 07:31N 42°37' W 070°40'0 0.0
2017-Oct-21 07:00N 42°37' W 070°40'0 0.0
2017-Oct-21 06:30N 42°37' W 070°40'0 0.0
2017-Oct-21 06:00N 42°37' W 070°40'0 0.0
2017-Oct-21 05:30N 42°37' W 070°40'0 0.0
2017-Oct-21 05:00N 42°37' W 070°40'0 0.0
2017-Oct-21 04:30N 42°37' W 070°40'0 0.0
2017-Oct-21 04:01N 42°37' W 070°40'0 0.0
2017-Oct-21 03:31N 42°37' W 070°40'0 0.0
2017-Oct-21 03:00N 42°37' W 070°40'0 0.0
2017-Oct-21 02:30N 42°37' W 070°40'0 0.0
2017-Oct-21 02:00N 42°37' W 070°40'0 0.0
2017-Oct-21 01:30N 42°37' W 070°40'0 0.0
2017-Oct-21 01:00N 42°37' W 070°40'0 0.0
2017-Oct-21 00:31N 42°37' W 070°40'0 0.0
2017-Oct-21 00:00N 42°37' W 070°40'0 0.0
2017-Oct-20 23:31N 42°37' W 070°40'0 0.0
2017-Oct-20 23:00N 42°37' W 070°40'0 0.0
2017-Oct-20 22:30N 42°37' W 070°40'0 0.0
2017-Oct-20 22:01N 42°37' W 070°40'0 0.0
2017-Oct-20 21:30N 42°37' W 070°40'0 0.0
2017-Oct-20 21:01N 42°37' W 070°40'0 0.0
2017-Oct-20 20:31N 42°37' W 070°40'0 0.0
2017-Oct-20 20:01N 42°37' W 070°40'0 0.2
2017-Oct-20 19:30N 42°37' W 070°40'4 8.9
2017-Oct-20 19:00N 42°37' W 070°34'5 9.1
2017-Oct-20 18:31N 42°38' W 070°28'1 2.4
2017-Oct-20 18:00N 42°37' W 070°27'4 7.5
2017-Oct-20 17:30N 42°37' W 070°32'611.2
2017-Oct-20 17:00N 42°36' W 070°40'0 0.5
2017-Oct-20 16:30N 42°37' W 070°40'0 0.0
2017-Oct-20 16:00N 42°37' W 070°40'0 0.0
2017-Oct-20 15:30N 42°37' W 070°40'0 0.0
2017-Oct-20 15:00N 42°37' W 070°40'0 0.0
2017-Oct-20 14:30N 42°37' W 070°40'0 0.0
2017-Oct-20 13:30N 42°37' W 070°40'0 0.0
2017-Oct-20 13:00N 42°37' W 070°40'0 0.0
2017-Oct-20 12:30N 42°37' W 070°40'0 0.0
2017-Oct-20 12:00N 42°37' W 070°40'0 0.0
2017-Oct-20 11:30N 42°37' W 070°40'0 0.0
2017-Oct-20 11:00N 42°37' W 070°40'0 0.0
2017-Oct-20 10:31N 42°37' W 070°40'0 0.0
2017-Oct-20 10:00N 42°37' W 070°40'0 0.0
2017-Oct-20 09:30N 42°37' W 070°40'0 0.0
2017-Oct-20 09:01N 42°37' W 070°40'0 0.0
2017-Oct-20 08:30N 42°37' W 070°40'0 0.0
2017-Oct-20 08:00N 42°37' W 070°40'0 0.0
2017-Oct-20 07:31N 42°37' W 070°40'0 0.0
2017-Oct-20 07:00N 42°37' W 070°40'0 0.0
2017-Oct-20 06:30N 42°37' W 070°40'0 0.0
2017-Oct-20 06:00N 42°37' W 070°40'0 0.0
2017-Oct-20 05:30N 42°37' W 070°40'0 0.0
2017-Oct-20 05:00N 42°37' W 070°40'0 0.0
2017-Oct-20 04:30N 42°37' W 070°40'0 0.0
2017-Oct-20 04:01N 42°37' W 070°40'0 0.0
2017-Oct-20 03:31N 42°37' W 070°40'0 0.0
2017-Oct-20 03:00N 42°37' W 070°40'0 0.0
2017-Oct-20 02:30N 42°37' W 070°40'0 0.0
2017-Oct-20 02:00N 42°37' W 070°40'0 0.0
2017-Oct-20 01:30N 42°37' W 070°40'0 0.0
2017-Oct-20 01:00N 42°37' W 070°40'0 0.0
2017-Oct-20 00:31N 42°37' W 070°40'0 0.0
2017-Oct-20 00:00N 42°37' W 070°40'0 0.0
2017-Oct-19 23:31N 42°37' W 070°40'0 0.0
2017-Oct-19 23:01N 42°37' W 070°40'0 0.0
2017-Oct-19 22:31N 42°37' W 070°40'0 0.0
2017-Oct-19 22:00N 42°37' W 070°40'0 0.0
2017-Oct-19 21:30N 42°37' W 070°40'0 0.0
2017-Oct-19 21:00N 42°37' W 070°40'0 0.0
2017-Oct-19 20:30N 42°37' W 070°40'1 1.6
2017-Oct-19 20:00N 42°36' W 070°40'612.4
2017-Oct-19 19:30N 42°38' W 070°32'510.5
2017-Oct-19 19:00N 42°40' W 070°26'1 1.4
2017-Oct-19 18:30N 42°41' W 070°26'1 2.9
2017-Oct-19 18:01N 42°40' W 070°27'5 9.9
2017-Oct-19 17:30N 42°37' W 070°33'510.4
2017-Oct-19 17:00N 42°37' W 070°40'0 0.2
2017-Oct-19 16:30N 42°37' W 070°40'0 0.0
2017-Oct-19 16:00N 42°37' W 070°40'0 0.0
2017-Oct-19 15:30N 42°37' W 070°40'0 0.0
2017-Oct-19 15:00N 42°37' W 070°40'0 0.0
2017-Oct-19 14:30N 42°37' W 070°40'0 0.0
2017-Oct-19 14:00N 42°37' W 070°40'0 0.0
2017-Oct-19 13:30N 42°37' W 070°40'0 0.0
2017-Oct-19 13:00N 42°37' W 070°40'0 0.0
2017-Oct-19 12:30N 42°37' W 070°40'0 0.0
2017-Oct-19 12:00N 42°37' W 070°40'0 0.0
2017-Oct-19 11:30N 42°37' W 070°40'0 0.0
2017-Oct-19 11:00N 42°37' W 070°40'0 0.0
2017-Oct-19 10:30N 42°37' W 070°40'0 0.0
2017-Oct-19 10:00N 42°37' W 070°40'0 0.0
2017-Oct-19 09:30N 42°37' W 070°40'0 0.0
2017-Oct-19 09:00N 42°37' W 070°40'0 0.0
2017-Oct-19 08:30N 42°37' W 070°40'0 0.0
2017-Oct-19 08:00N 42°37' W 070°40'0 0.0
2017-Oct-19 07:30N 42°37' W 070°40'0 0.0
2017-Oct-19 07:00N 42°37' W 070°40'0 0.0
2017-Oct-19 06:30N 42°37' W 070°40'0 0.0
2017-Oct-19 06:00N 42°37' W 070°40'0 0.0
2017-Oct-19 05:30N 42°37' W 070°40'0 0.0
2017-Oct-19 05:00N 42°37' W 070°40'0 0.0
2017-Oct-19 04:30N 42°37' W 070°40'0 0.0
2017-Oct-19 04:00N 42°37' W 070°40'0 0.0
2017-Oct-19 03:30N 42°37' W 070°40'0 0.0
2017-Oct-19 03:00N 42°37' W 070°40'0 0.0
2017-Oct-19 02:30N 42°37' W 070°40'0 0.0
2017-Oct-19 02:00N 42°37' W 070°40'0 0.0
2017-Oct-19 01:30N 42°37' W 070°40'0 0.0
2017-Oct-19 01:00N 42°37' W 070°40'0 0.0
2017-Oct-19 00:30N 42°37' W 070°40'0 0.0
2017-Oct-19 00:00N 42°37' W 070°40'0 0.0
2017-Oct-18 23:30N 42°37' W 070°40'0 0.0
2017-Oct-18 23:00N 42°37' W 070°40'0 0.0
2017-Oct-18 22:30N 42°37' W 070°40'0 0.0
2017-Oct-18 22:00N 42°37' W 070°40'0 0.0
2017-Oct-18 21:30N 42°37' W 070°40'0 0.0
2017-Oct-18 21:00N 42°37' W 070°40'0 0.0
2017-Oct-18 20:30N 42°37' W 070°40'0 0.0
2017-Oct-18 20:00N 42°37' W 070°40'2 4.4
2017-Oct-18 19:30N 42°35' W 070°39'815.9
2017-Oct-18 19:00N 42°38' W 070°29'1 2.7
2017-Oct-18 18:31N 42°39' W 070°29'1 2.3
2017-Oct-18 18:00N 42°39' W 070°30'3 5.9
2017-Oct-18 17:30N 42°38' W 070°33'5 9.7
2017-Oct-18 17:01N 42°37' W 070°40'0 0.1
2017-Oct-18 16:30N 42°37' W 070°40'0 0.0
2017-Oct-18 16:00N 42°37' W 070°40'0 0.0
2017-Oct-18 15:31N 42°37' W 070°40'0 0.0
2017-Oct-18 15:00N 42°37' W 070°40'0 0.0
2017-Oct-18 14:00N 42°37' W 070°40'0 0.0
2017-Oct-18 13:30N 42°37' W 070°40'0 0.0
2017-Oct-18 13:01N 42°37' W 070°40'0 0.0
2017-Oct-18 12:30N 42°37' W 070°40'0 0.0
2017-Oct-18 12:00N 42°37' W 070°40'0 0.0
2017-Oct-18 11:30N 42°37' W 070°40'0 0.0
2017-Oct-18 11:00N 42°37' W 070°40'0 0.0
2017-Oct-18 10:30N 42°37' W 070°40'0 0.0
2017-Oct-18 10:00N 42°37' W 070°40'0 0.0
2017-Oct-18 09:30N 42°37' W 070°40'0 0.0
2017-Oct-18 09:00N 42°37' W 070°40'0 0.0
2017-Oct-18 08:30N 42°37' W 070°40'0 0.0
2017-Oct-18 08:00N 42°37' W 070°40'0 0.0
2017-Oct-18 07:30N 42°37' W 070°40'0 0.0
2017-Oct-18 07:00N 42°37' W 070°40'0 0.0
2017-Oct-18 06:30N 42°37' W 070°40'0 0.0
2017-Oct-18 06:00N 42°37' W 070°40'0 0.0
2017-Oct-18 05:30N 42°37' W 070°40'0 0.0
2017-Oct-18 05:01N 42°37' W 070°40'0 0.0
2017-Oct-18 04:30N 42°37' W 070°40'0 0.0
2017-Oct-18 04:01N 42°37' W 070°40'0 0.0
2017-Oct-18 03:30N 42°37' W 070°40'0 0.0
2017-Oct-18 03:00N 42°37' W 070°40'0 0.0
2017-Oct-18 02:30N 42°37' W 070°40'0 0.0
2017-Oct-18 02:00N 42°37' W 070°40'0 0.0
2017-Oct-18 01:31N 42°37' W 070°40'0 0.0
2017-Oct-18 01:00N 42°37' W 070°40'0 0.0
2017-Oct-18 00:30N 42°37' W 070°40'0 0.0
2017-Oct-18 00:00N 42°37' W 070°40'0 0.0
2017-Oct-17 23:30N 42°37' W 070°40'0 0.0
2017-Oct-17 23:00N 42°37' W 070°40'0 0.0
2017-Oct-17 22:30N 42°37' W 070°40'0 0.0
2017-Oct-17 22:00N 42°37' W 070°40'0 0.0
2017-Oct-17 21:30N 42°37' W 070°40'0 0.0
2017-Oct-17 21:01N 42°37' W 070°40'0 0.0
2017-Oct-17 20:30N 42°37' W 070°40'0 0.0
2017-Oct-17 20:00N 42°37' W 070°40'0 0.0
2017-Oct-17 19:30N 42°37' W 070°40'0 0.0
2017-Oct-17 19:00N 42°37' W 070°40'0 0.0
2017-Oct-17 18:30N 42°37' W 070°40'0 0.0
2017-Oct-17 18:00N 42°37' W 070°40'0 0.0
2017-Oct-17 17:30N 42°37' W 070°40'0 0.0
2017-Oct-17 17:00N 42°37' W 070°40'0 0.0
2017-Oct-17 16:30N 42°37' W 070°40'0 0.0
2017-Oct-17 16:00N 42°37' W 070°40'0 0.0
2017-Oct-17 15:30N 42°37' W 070°40'0 0.0
2017-Oct-17 15:00N 42°37' W 070°40'0 0.0
2017-Oct-17 14:31N 42°37' W 070°40'0 0.0
2017-Oct-17 14:00N 42°37' W 070°40'0 0.0
2017-Oct-17 13:30N 42°37' W 070°40'0 0.0
2017-Oct-17 13:00N 42°37' W 070°40'0 0.0
2017-Oct-17 12:30N 42°37' W 070°40'0 0.0
2017-Oct-17 12:00N 42°37' W 070°40'0 0.0
2017-Oct-17 11:30N 42°37' W 070°40'0 0.0
2017-Oct-17 11:00N 42°37' W 070°40'0 0.0
2017-Oct-17 10:30N 42°37' W 070°40'0 0.0
2017-Oct-17 10:00N 42°37' W 070°40'0 0.0
2017-Oct-17 09:30N 42°37' W 070°40'0 0.0
2017-Oct-17 09:01N 42°37' W 070°40'0 0.0
2017-Oct-17 08:30N 42°37' W 070°40'0 0.0
2017-Oct-17 08:00N 42°37' W 070°40'0 0.0
2017-Oct-17 07:30N 42°37' W 070°40'0 0.0
2017-Oct-17 07:00N 42°37' W 070°40'0 0.0
2017-Oct-17 06:30N 42°37' W 070°40'0 0.0
2017-Oct-17 06:00N 42°37' W 070°40'0 0.0
2017-Oct-17 05:30N 42°37' W 070°40'0 0.0
2017-Oct-17 05:00N 42°37' W 070°40'0 0.0
2017-Oct-17 04:30N 42°37' W 070°40'0 0.0
2017-Oct-17 04:00N 42°37' W 070°40'0 0.0
2017-Oct-17 03:30N 42°37' W 070°40'0 0.0
2017-Oct-17 03:00N 42°37' W 070°40'0 0.0
2017-Oct-17 02:30N 42°37' W 070°40'0 0.0
2017-Oct-17 02:01N 42°37' W 070°40'0 0.0
2017-Oct-17 01:31N 42°37' W 070°40'0 0.0
2017-Oct-17 01:00N 42°37' W 070°40'0 0.0
2017-Oct-17 00:30N 42°37' W 070°40'0 0.0
2017-Oct-17 00:00N 42°37' W 070°40'0 0.0
2017-Oct-16 23:30N 42°37' W 070°40'0 0.0
2017-Oct-16 23:00N 42°37' W 070°40'0 0.0
2017-Oct-16 22:30N 42°37' W 070°40'0 0.0
2017-Oct-16 22:00N 42°37' W 070°40'0 0.0
2017-Oct-16 21:30N 42°37' W 070°40'0 0.0
2017-Oct-16 21:00N 42°37' W 070°40'0 0.0
2017-Oct-16 20:30N 42°37' W 070°40'0 0.0
2017-Oct-16 20:00N 42°37' W 070°40'0 0.0
2017-Oct-16 19:30N 42°37' W 070°40'0 0.0
2017-Oct-16 19:00N 42°37' W 070°40'0 0.0
2017-Oct-16 18:30N 42°37' W 070°40'0 0.0
2017-Oct-16 18:00N 42°37' W 070°40'0 0.0
2017-Oct-16 17:30N 42°37' W 070°40'0 0.0
2017-Oct-16 17:00N 42°37' W 070°40'0 0.0
2017-Oct-16 16:31N 42°37' W 070°40'0 0.0
2017-Oct-16 16:00N 42°37' W 070°40'0 0.0
2017-Oct-16 15:30N 42°37' W 070°40'0 0.0
2017-Oct-16 15:01N 42°37' W 070°40'0 0.0
2017-Oct-16 14:00N 42°37' W 070°40'0 0.0
2017-Oct-16 13:30N 42°37' W 070°40'0 0.0
2017-Oct-16 13:01N 42°37' W 070°40'0 0.0
2017-Oct-16 12:30N 42°37' W 070°40'0 0.0
2017-Oct-16 12:00N 42°37' W 070°40'0 0.0
2017-Oct-16 11:31N 42°37' W 070°40'0 0.0
2017-Oct-16 11:00N 42°37' W 070°40'0 0.0
2017-Oct-16 10:30N 42°37' W 070°40'0 0.0
2017-Oct-16 10:01N 42°37' W 070°40'0 0.0
2017-Oct-16 09:30N 42°37' W 070°40'0 0.0
2017-Oct-16 09:00N 42°37' W 070°40'0 0.0
2017-Oct-16 08:30N 42°37' W 070°40'0 0.0
2017-Oct-16 08:01N 42°37' W 070°40'0 0.0
2017-Oct-16 07:30N 42°37' W 070°40'0 0.0
2017-Oct-16 07:00N 42°37' W 070°40'0 0.0
2017-Oct-16 06:30N 42°37' W 070°40'0 0.0
2017-Oct-16 06:01N 42°37' W 070°40'0 0.0
2017-Oct-16 05:31N 42°37' W 070°40'0 0.0
2017-Oct-16 05:00N 42°37' W 070°40'0 0.0
2017-Oct-16 04:31N 42°37' W 070°40'0 0.0
2017-Oct-16 04:01N 42°37' W 070°40'0 0.0
2017-Oct-16 03:31N 42°37' W 070°40'0 0.0
2017-Oct-16 03:00N 42°37' W 070°40'0 0.0
2017-Oct-16 02:31N 42°37' W 070°40'0 0.0
2017-Oct-16 02:01N 42°37' W 070°40'0 0.0
2017-Oct-16 01:31N 42°37' W 070°40'0 0.0
2017-Oct-16 01:01N 42°37' W 070°40'0 0.0
2017-Oct-16 00:31N 42°37' W 070°40'0 0.0
2017-Oct-16 00:00N 42°37' W 070°40'0 0.0
2017-Oct-15 23:30N 42°37' W 070°40'0 0.0
2017-Oct-15 23:01N 42°37' W 070°40'0 0.0
2017-Oct-15 22:30N 42°37' W 070°40'0 0.0
2017-Oct-15 22:00N 42°37' W 070°40'0 0.0
2017-Oct-15 21:30N 42°37' W 070°40'0 0.0
2017-Oct-15 21:01N 42°37' W 070°40'0 0.0
2017-Oct-15 20:30N 42°37' W 070°40'0 1.0
2017-Oct-15 20:00N 42°36' W 070°40'611.1
2017-Oct-15 19:30N 42°38' W 070°33'4 8.0
2017-Oct-15 19:00N 42°41' W 070°30'1 2.2
2017-Oct-15 18:31N 42°41' W 070°29'1 1.9
2017-Oct-15 18:00N 42°40' W 070°28'510.1
2017-Oct-15 17:30N 42°37' W 070°33'5 9.8
2017-Oct-15 17:00N 42°37' W 070°40'0 0.1
2017-Oct-15 16:30N 42°37' W 070°40'0 0.0
2017-Oct-15 16:00N 42°37' W 070°40'0 0.0
2017-Oct-15 15:30N 42°37' W 070°40'0 0.0
2017-Oct-15 15:00N 42°37' W 070°40'0 0.0
2017-Oct-15 14:00N 42°37' W 070°40'0 0.0
2017-Oct-15 13:30N 42°37' W 070°40'0 0.0
2017-Oct-15 13:00N 42°37' W 070°40'0 0.0
2017-Oct-15 12:30N 42°37' W 070°40'0 0.0
2017-Oct-15 12:00N 42°37' W 070°40'0 0.0
2017-Oct-15 11:30N 42°37' W 070°40'0 0.0
2017-Oct-15 11:00N 42°37' W 070°40'0 0.0
2017-Oct-15 10:30N 42°37' W 070°40'0 0.0
2017-Oct-15 10:00N 42°37' W 070°40'0 0.0
2017-Oct-15 09:30N 42°37' W 070°40'0 0.0
2017-Oct-15 09:00N 42°37' W 070°40'0 0.0
2017-Oct-15 08:30N 42°37' W 070°40'0 0.0
2017-Oct-15 08:00N 42°37' W 070°40'0 0.0
2017-Oct-15 07:30N 42°37' W 070°40'0 0.0
2017-Oct-15 07:00N 42°37' W 070°40'0 0.0
2017-Oct-15 06:30N 42°37' W 070°40'0 0.0
2017-Oct-15 06:00N 42°37' W 070°40'0 0.0
2017-Oct-15 05:30N 42°37' W 070°40'0 0.0
2017-Oct-15 05:00N 42°37' W 070°40'0 0.0
2017-Oct-15 04:30N 42°37' W 070°40'0 0.0
2017-Oct-15 04:00N 42°37' W 070°40'0 0.0
2017-Oct-15 03:30N 42°37' W 070°40'0 0.0
2017-Oct-15 03:00N 42°37' W 070°40'0 0.0
2017-Oct-15 02:30N 42°37' W 070°40'0 0.0
2017-Oct-15 02:00N 42°37' W 070°40'0 0.0
2017-Oct-15 01:30N 42°37' W 070°40'0 0.0
2017-Oct-15 01:00N 42°37' W 070°40'0 0.0
2017-Oct-15 00:30N 42°37' W 070°40'0 0.0
2017-Oct-15 00:00N 42°37' W 070°40'0 0.0
2017-Oct-14 23:30N 42°37' W 070°40'0 0.0
2017-Oct-14 23:00N 42°37' W 070°40'0 0.0
2017-Oct-14 22:30N 42°37' W 070°40'0 0.0
2017-Oct-14 22:00N 42°37' W 070°40'0 0.0
2017-Oct-14 21:30N 42°37' W 070°40'0 0.0
2017-Oct-14 21:00N 42°37' W 070°40'0 0.0
2017-Oct-14 20:31N 42°37' W 070°40'0 0.0
2017-Oct-14 20:00N 42°37' W 070°40'2 4.0
2017-Oct-14 19:31N 42°36' W 070°38'816.4
2017-Oct-14 19:00N 42°40' W 070°28'1 1.3
2017-Oct-14 18:30N 42°40' W 070°27'1 2.2
2017-Oct-14 18:00N 42°40' W 070°29'510.5
2017-Oct-14 17:30N 42°36' W 070°34'5 9.2
2017-Oct-14 17:00N 42°37' W 070°40'0 0.0
2017-Oct-14 16:31N 42°37' W 070°40'0 0.0
2017-Oct-14 16:01N 42°37' W 070°40'0 0.0
2017-Oct-14 15:30N 42°37' W 070°40'0 0.0
2017-Oct-14 15:00N 42°37' W 070°40'0 0.0
2017-Oct-14 14:30N 42°37' W 070°40'0 0.0
2017-Oct-14 14:01N 42°37' W 070°40'0 0.0
2017-Oct-14 13:30N 42°37' W 070°40'0 0.0
2017-Oct-14 13:00N 42°37' W 070°40'0 0.0
2017-Oct-14 12:30N 42°37' W 070°40'0 0.0
2017-Oct-14 12:00N 42°37' W 070°40'0 0.0
2017-Oct-14 11:31N 42°37' W 070°40'0 0.0
2017-Oct-14 11:01N 42°37' W 070°40'0 0.0
2017-Oct-14 10:30N 42°37' W 070°40'0 0.0
2017-Oct-14 10:01N 42°37' W 070°40'0 0.0
2017-Oct-14 09:30N 42°37' W 070°40'0 0.0
2017-Oct-14 09:00N 42°37' W 070°40'0 0.0
2017-Oct-14 08:30N 42°37' W 070°40'0 0.0
2017-Oct-14 08:00N 42°37' W 070°40'0 0.0
2017-Oct-14 07:30N 42°37' W 070°40'0 0.0
2017-Oct-14 07:00N 42°37' W 070°40'0 0.0
2017-Oct-14 06:30N 42°37' W 070°40'0 0.0
2017-Oct-14 06:00N 42°37' W 070°40'0 0.0
2017-Oct-14 05:31N 42°37' W 070°40'0 0.0
2017-Oct-14 05:01N 42°37' W 070°40'0 0.0
2017-Oct-14 04:30N 42°37' W 070°40'0 0.0
2017-Oct-14 04:00N 42°37' W 070°40'0 0.0
2017-Oct-14 03:30N 42°37' W 070°40'0 0.0
2017-Oct-14 03:00N 42°37' W 070°40'0 0.0
2017-Oct-14 02:30N 42°37' W 070°40'0 0.0
2017-Oct-14 02:01N 42°37' W 070°40'0 0.0
2017-Oct-14 01:26N 42°37' W 070°40'0 0.0
2017-Oct-14 00:52N 42°37' W 070°40'0 0.0
2017-Oct-13 23:46N 42°37' W 070°40'0 0.0
2017-Oct-13 23:20N 42°37' W 070°40'0 0.0
2017-Oct-13 23:00N 42°37' W 070°40'0 0.0
2017-Oct-13 22:31N 42°37' W 070°40'0 0.0
2017-Oct-13 22:00N 42°37' W 070°40'0 0.0
2017-Oct-13 21:30N 42°37' W 070°40'0 0.0
2017-Oct-13 21:00N 42°37' W 070°40'0 0.0
2017-Oct-13 20:31N 42°37' W 070°40'0 0.0
2017-Oct-13 20:00N 42°37' W 070°40'2 3.7
2017-Oct-13 19:31N 42°35' W 070°39'917.3
2017-Oct-13 19:00N 42°39' W 070°29'2 3.8
2017-Oct-13 18:30N 42°40' W 070°26'1 1.1
2017-Oct-13 18:00N 42°40' W 070°27'713.4
2017-Oct-13 17:30N 42°37' W 070°35'4 7.3
2017-Oct-13 17:00N 42°37' W 070°40'0 0.0
2017-Oct-13 16:30N 42°37' W 070°40'0 0.0
2017-Oct-13 16:00N 42°37' W 070°40'0 0.0
2017-Oct-13 15:30N 42°37' W 070°40'0 0.0
2017-Oct-13 15:00N 42°37' W 070°40'0 0.0
2017-Oct-13 14:30N 42°37' W 070°40'0 0.0
2017-Oct-13 14:00N 42°37' W 070°40'0 0.0
2017-Oct-13 13:30N 42°37' W 070°40'0 0.0
2017-Oct-13 13:00N 42°37' W 070°40'0 0.0
2017-Oct-13 12:30N 42°37' W 070°40'0 0.0
2017-Oct-13 12:00N 42°37' W 070°40'0 0.0
2017-Oct-13 11:30N 42°37' W 070°40'0 0.0
2017-Oct-13 11:00N 42°37' W 070°40'0 0.0
2017-Oct-13 10:30N 42°37' W 070°40'0 0.0
2017-Oct-13 10:00N 42°37' W 070°40'0 0.0
2017-Oct-13 09:30N 42°37' W 070°40'0 0.0
2017-Oct-13 09:00N 42°37' W 070°40'0 0.0
2017-Oct-13 08:30N 42°37' W 070°40'0 0.0
2017-Oct-13 08:00N 42°37' W 070°40'0 0.0
2017-Oct-13 07:30N 42°37' W 070°40'0 0.0
2017-Oct-13 07:00N 42°37' W 070°40'0 0.0
2017-Oct-13 06:30N 42°37' W 070°40'0 0.0
2017-Oct-13 06:00N 42°37' W 070°40'0 0.0
2017-Oct-13 05:30N 42°37' W 070°40'0 0.0
2017-Oct-13 05:00N 42°37' W 070°40'  

Dump ship's entire track history